createdAt,value
2023-05-16T00:01:02.526Z,100.00
2023-05-16T00:03:30.899Z,100.00
2023-05-16T00:05:58.128Z,100.00
2023-05-16T00:08:24.827Z,100.00
2023-05-16T00:10:51.375Z,100.00
2023-05-16T00:13:22.311Z,100.00
2023-05-16T00:15:48.894Z,100.00
2023-05-16T00:18:16.726Z,100.00
2023-05-16T00:20:43.372Z,100.00
2023-05-16T00:23:09.967Z,100.00
2023-05-16T00:25:37.501Z,100.00
2023-05-16T00:28:04.145Z,100.00
2023-05-16T00:30:30.765Z,100.00
2023-05-16T00:32:57.398Z,100.00
2023-05-16T00:35:24.358Z,100.00
2023-05-16T00:37:51.449Z,100.00
2023-05-16T00:40:18.241Z,100.00
2023-05-16T00:42:44.846Z,100.00
2023-05-16T00:45:12.134Z,98.81
2023-05-16T00:47:38.851Z,98.61
2023-05-16T00:50:06.032Z,97.80
2023-05-16T00:52:33.848Z,98.48
2023-05-16T00:55:01.221Z,98.08
2023-05-16T00:57:27.981Z,97.79
2023-05-16T00:59:54.865Z,97.45
2023-05-16T01:02:21.640Z,97.63
2023-05-16T01:04:48.949Z,97.81
2023-05-16T01:07:15.624Z,99.25
2023-05-16T01:09:42.364Z,99.67
2023-05-16T01:12:16.293Z,99.25
2023-05-16T01:15:10.938Z,99.56
2023-05-16T01:17:59.256Z,99.85
2023-05-16T01:20:55.769Z,100.00
2023-05-16T01:23:34.631Z,100.00
2023-05-16T01:26:16.864Z,100.00
2023-05-16T01:28:46.510Z,100.00
2023-05-16T01:31:13.211Z,100.00
2023-05-16T01:33:39.914Z,98.16
2023-05-16T01:36:26.569Z,99.15
2023-05-16T01:39:11.671Z,100.00
2023-05-16T01:41:41.524Z,100.00
2023-05-16T01:44:17.234Z,100.00
2023-05-16T01:46:47.799Z,100.00
2023-05-16T01:49:25.576Z,99.97
2023-05-16T01:51:56.318Z,99.76
2023-05-16T01:54:26.522Z,99.90
2023-05-16T01:56:56.042Z,100.00
2023-05-16T01:59:24.350Z,99.81
2023-05-16T02:01:54.274Z,100.00
2023-05-16T02:04:21.289Z,100.00
2023-05-16T02:06:48.258Z,100.00
2023-05-16T02:09:14.829Z,100.00
2023-05-16T02:11:41.443Z,100.00
2023-05-16T02:14:08.093Z,100.00
2023-05-16T02:16:34.699Z,100.00
2023-05-16T02:19:01.689Z,100.00
2023-05-16T02:21:28.260Z,99.58
2023-05-16T02:23:54.831Z,99.22
2023-05-16T02:26:21.960Z,99.73
2023-05-16T02:28:49.942Z,100.00
2023-05-16T02:31:45.915Z,100.00
2023-05-16T02:34:12.521Z,100.00
2023-05-16T02:36:39.073Z,100.00
2023-05-16T02:39:05.918Z,100.00
2023-05-16T02:41:33.228Z,100.00
2023-05-16T02:43:59.846Z,100.00
2023-05-16T02:46:30.903Z,100.00
2023-05-16T02:48:57.748Z,100.00
2023-05-16T02:51:26.624Z,100.00
2023-05-16T02:53:54.024Z,100.00
2023-05-16T02:56:21.781Z,100.00
2023-05-16T02:58:50.140Z,100.00
2023-05-16T03:01:17.536Z,100.00
2023-05-16T03:03:44.624Z,100.00
2023-05-16T03:06:11.436Z,100.00
2023-05-16T03:08:38.059Z,100.00
2023-05-16T03:11:04.709Z,100.00
2023-05-16T03:13:31.336Z,100.00
2023-05-16T03:15:58.141Z,100.00
2023-05-16T03:18:24.747Z,100.00
2023-05-16T03:20:53.061Z,100.00
2023-05-16T03:23:22.803Z,100.00
2023-05-16T03:25:49.679Z,100.00
2023-05-16T03:28:18.072Z,100.00
2023-05-16T03:30:44.712Z,100.00
2023-05-16T03:33:11.480Z,100.00
2023-05-16T03:35:38.535Z,100.00
2023-05-16T03:38:05.167Z,100.00
2023-05-16T03:40:31.791Z,100.00
2023-05-16T03:42:58.430Z,100.00
2023-05-16T03:45:25.238Z,100.00
2023-05-16T03:47:52.071Z,98.87
2023-05-16T03:50:18.761Z,97.98
2023-05-16T03:52:45.386Z,97.29
2023-05-16T03:55:14.494Z,96.13
2023-05-16T03:57:42.302Z,96.30
2023-05-16T04:00:12.401Z,96.53
2023-05-16T04:02:42.996Z,97.01
2023-05-16T04:05:10.844Z,96.11
2023-05-16T04:07:38.225Z,96.39
2023-05-16T04:10:06.438Z,95.31
2023-05-16T04:12:33.104Z,96.38
2023-05-16T04:14:59.690Z,96.12
2023-05-16T04:17:26.357Z,95.88
2023-05-16T04:19:53.143Z,95.45
2023-05-16T04:22:22.066Z,94.42
2023-05-16T04:24:49.157Z,92.21
2023-05-16T04:27:15.931Z,92.32
2023-05-16T04:29:42.750Z,92.11
2023-05-16T04:32:09.695Z,91.76
2023-05-16T04:34:39.771Z,91.58
2023-05-16T04:37:08.475Z,90.92
2023-05-16T04:39:36.597Z,90.98
2023-05-16T04:42:04.446Z,89.05
2023-05-16T04:44:31.772Z,88.48
2023-05-16T04:46:58.577Z,86.55
2023-05-16T04:49:25.381Z,85.56
2023-05-16T04:51:52.310Z,85.24
2023-05-16T04:54:18.943Z,84.38
2023-05-16T04:56:45.538Z,84.11
2023-05-16T04:59:12.198Z,84.34
2023-05-16T05:01:39.791Z,83.73
2023-05-16T05:04:06.626Z,83.62
2023-05-16T05:06:33.236Z,84.16
2023-05-16T05:08:59.873Z,83.78
2023-05-16T05:11:27.456Z,83.46
2023-05-16T05:13:54.107Z,84.43
2023-05-16T05:16:20.807Z,85.25
2023-05-16T05:18:47.530Z,84.03
2023-05-16T05:21:14.363Z,83.23
2023-05-16T05:23:41.352Z,82.77
2023-05-16T05:26:08.281Z,81.39
2023-05-16T05:28:34.966Z,80.23
2023-05-16T05:31:01.655Z,77.96
2023-05-16T05:33:31.027Z,77.31
2023-05-16T05:35:57.797Z,76.92
2023-05-16T05:38:24.482Z,75.96
2023-05-16T05:40:51.202Z,75.67
2023-05-16T05:43:17.857Z,74.20
2023-05-16T05:45:44.913Z,72.70
2023-05-16T05:48:12.814Z,73.31
2023-05-16T05:50:39.751Z,73.37
2023-05-16T05:53:06.401Z,72.21
2023-05-16T05:55:33.099Z,78.44
2023-05-16T05:57:59.739Z,80.51
2023-05-16T06:00:26.522Z,80.14
2023-05-16T06:02:53.492Z,78.28
2023-05-16T06:05:20.242Z,77.42
2023-05-16T06:07:46.830Z,81.88
2023-05-16T06:10:13.440Z,80.42
2023-05-16T06:12:40.036Z,82.49
2023-05-16T06:15:07.509Z,81.63
2023-05-16T06:17:34.192Z,77.80
2023-05-16T06:20:00.967Z,76.79
2023-05-16T06:22:27.584Z,79.01
2023-05-16T06:24:54.136Z,78.53
2023-05-16T06:27:20.742Z,77.57
2023-05-16T06:29:47.283Z,75.44
2023-05-16T06:32:13.830Z,75.92
2023-05-16T06:34:40.514Z,77.05
2023-05-16T06:37:07.111Z,75.03
2023-05-16T06:39:33.808Z,73.48
2023-05-16T06:42:00.929Z,75.02
2023-05-16T06:44:27.803Z,73.40
2023-05-16T06:46:54.595Z,72.41
2023-05-16T06:49:21.482Z,71.81
2023-05-16T06:51:48.128Z,70.09
2023-05-16T06:54:15.155Z,71.35
2023-05-16T06:56:41.936Z,70.59
2023-05-16T06:59:08.591Z,72.77
2023-05-16T07:01:35.580Z,74.89
2023-05-16T07:04:02.674Z,75.51
2023-05-16T07:06:29.594Z,76.64
2023-05-16T07:08:56.173Z,73.59
2023-05-16T07:11:22.833Z,71.74
2023-05-16T07:13:49.696Z,68.53
2023-05-16T07:16:16.392Z,68.96
2023-05-16T07:18:43.580Z,69.25
2023-05-16T07:21:10.195Z,67.70
2023-05-16T07:23:36.841Z,68.25
2023-05-16T07:26:03.820Z,72.90
2023-05-16T07:28:30.641Z,75.03
2023-05-16T07:30:58.882Z,77.98
2023-05-16T07:33:25.802Z,74.82
2023-05-16T07:36:00.883Z,76.69
2023-05-16T07:38:34.951Z,72.40
2023-05-16T07:41:01.656Z,70.85
2023-05-16T07:43:28.452Z,70.42
2023-05-16T07:45:56.432Z,70.12
2023-05-16T07:48:23.193Z,73.42
2023-05-16T07:50:49.830Z,73.36
2023-05-16T07:53:16.593Z,72.94
2023-05-16T07:55:43.278Z,70.55
2023-05-16T07:58:10.000Z,71.14
2023-05-16T08:00:36.752Z,71.85
2023-05-16T08:03:03.786Z,68.50
2023-05-16T08:05:30.962Z,69.19
2023-05-16T08:07:58.603Z,69.42
2023-05-16T08:10:25.819Z,67.61
2023-05-16T08:12:53.881Z,65.18
2023-05-16T08:15:21.680Z,62.92
2023-05-16T08:17:48.493Z,62.61
2023-05-16T08:20:15.770Z,62.62
2023-05-16T08:22:42.407Z,63.24
2023-05-16T08:25:09.284Z,65.91
2023-05-16T08:27:36.148Z,65.71
2023-05-16T08:30:03.153Z,63.29
2023-05-16T08:32:29.798Z,62.50
2023-05-16T08:34:56.522Z,59.56
2023-05-16T08:37:23.172Z,59.13
2023-05-16T08:39:49.945Z,57.67
2023-05-16T08:42:16.753Z,55.20
2023-05-16T08:44:43.486Z,53.58
2023-05-16T08:47:19.258Z,51.85
2023-05-16T08:49:48.533Z,52.04
2023-05-16T08:52:19.618Z,54.80
2023-05-16T08:54:50.393Z,52.03
2023-05-16T08:57:22.246Z,50.11
2023-05-16T08:59:49.633Z,49.86
2023-05-16T09:02:16.319Z,51.75
2023-05-16T09:04:44.640Z,47.83
2023-05-16T09:07:11.438Z,46.70
2023-05-16T09:09:38.041Z,47.98
2023-05-16T09:12:04.907Z,46.58
2023-05-16T09:14:31.549Z,46.14
2023-05-16T09:17:12.152Z,47.39
2023-05-16T09:19:41.014Z,46.41
2023-05-16T09:22:15.164Z,48.46
2023-05-16T09:24:46.104Z,47.17
2023-05-16T09:27:14.669Z,45.36
2023-05-16T09:29:42.724Z,46.91
2023-05-16T09:32:16.711Z,46.75
2023-05-16T09:34:49.261Z,47.80
2023-05-16T09:37:16.406Z,46.77
2023-05-16T09:39:48.008Z,45.64
2023-05-16T09:42:16.488Z,46.55
2023-05-16T09:44:54.959Z,47.18
2023-05-16T09:47:22.298Z,46.90
2023-05-16T09:49:55.182Z,48.49
2023-05-16T09:52:21.991Z,46.84
2023-05-16T09:54:50.035Z,46.41
2023-05-16T09:57:23.676Z,48.25
2023-05-16T09:59:50.570Z,48.62
2023-05-16T10:02:17.678Z,48.61
2023-05-16T10:04:44.360Z,47.76
2023-05-16T10:07:11.353Z,47.59
2023-05-16T10:09:40.740Z,48.79
2023-05-16T10:12:08.783Z,48.77
2023-05-16T10:14:37.715Z,49.35
2023-05-16T10:17:07.139Z,50.26
2023-05-16T10:19:37.622Z,50.27
2023-05-16T10:22:06.891Z,50.93
2023-05-16T10:24:48.185Z,48.59
2023-05-16T10:27:17.333Z,48.99
2023-05-16T10:29:54.358Z,50.78
2023-05-16T10:32:24.447Z,49.39
2023-05-16T10:34:52.372Z,50.79
2023-05-16T10:37:19.157Z,51.08
2023-05-16T10:39:46.556Z,52.47
2023-05-16T10:42:18.268Z,51.29
2023-05-16T10:44:54.682Z,50.28
2023-05-16T10:47:25.163Z,49.04
2023-05-16T10:49:51.814Z,48.35
2023-05-16T10:52:18.437Z,46.75
2023-05-16T10:54:52.121Z,48.03
2023-05-16T10:57:23.790Z,50.41
2023-05-16T10:59:52.198Z,51.57
2023-05-16T11:02:32.195Z,51.08
2023-05-16T11:05:00.495Z,50.94
2023-05-16T11:07:32.711Z,51.71
2023-05-16T11:10:08.311Z,50.44
2023-05-16T11:12:45.072Z,52.15
2023-05-16T11:15:25.539Z,50.34
2023-05-16T11:18:06.364Z,47.54
2023-05-16T11:20:35.029Z,48.23
2023-05-16T11:23:17.071Z,47.43
2023-05-16T11:25:46.477Z,47.14
2023-05-16T11:28:15.462Z,46.84
2023-05-16T11:30:44.765Z,46.45
2023-05-16T11:33:13.064Z,47.60
2023-05-16T11:35:39.770Z,48.99
2023-05-16T11:38:06.434Z,49.09
2023-05-16T11:40:33.136Z,50.48
2023-05-16T11:43:05.755Z,51.29
2023-05-16T11:45:34.460Z,51.64
2023-05-16T11:48:04.633Z,51.65
2023-05-16T11:50:31.688Z,50.25
2023-05-16T11:52:58.425Z,50.24
2023-05-16T12:26:06.987Z,52.06
2023-05-16T12:28:34.938Z,53.15
2023-05-16T12:31:01.684Z,52.61
2023-05-16T12:33:28.417Z,52.10
2023-05-16T12:35:55.441Z,52.25
2023-05-16T12:38:22.367Z,52.67
2023-05-16T12:40:49.052Z,53.13
2023-05-16T12:43:23.210Z,52.79
2023-05-16T12:45:55.202Z,52.51
2023-05-16T12:48:22.961Z,53.37
2023-05-16T12:50:49.911Z,53.70
2023-05-16T12:53:18.415Z,53.99
2023-05-16T12:55:45.356Z,54.42
2023-05-16T12:58:12.951Z,54.22
2023-05-16T13:00:39.773Z,53.86
2023-05-16T13:03:07.808Z,53.06
2023-05-16T13:05:36.338Z,53.08
2023-05-16T13:08:03.485Z,52.88
2023-05-16T13:10:30.333Z,51.98
2023-05-16T13:13:01.550Z,51.30
2023-05-16T13:15:28.790Z,50.93
2023-05-16T13:17:55.872Z,51.36
2023-05-16T13:20:22.551Z,51.85
2023-05-16T13:22:49.337Z,51.64
2023-05-16T13:25:16.227Z,51.26
2023-05-16T13:27:44.954Z,51.59
2023-05-16T13:30:11.937Z,51.29
2023-05-16T13:32:38.863Z,50.93
2023-05-16T13:35:06.179Z,50.93
2023-05-16T13:37:33.087Z,49.75
2023-05-16T13:40:00.071Z,50.05
2023-05-16T13:42:26.860Z,48.90
2023-05-16T13:44:53.546Z,49.42
2023-05-16T13:47:20.159Z,48.99
2023-05-16T13:49:47.671Z,50.16
2023-05-16T13:52:14.910Z,51.37
2023-05-16T13:54:41.554Z,51.01
2023-05-16T13:57:08.385Z,52.76
2023-05-16T14:02:06.201Z,52.04
2023-05-16T14:04:32.925Z,52.36
2023-05-16T14:06:59.566Z,51.86
2023-05-16T14:09:26.194Z,51.71
2023-05-16T14:11:52.848Z,52.56
2023-05-16T14:14:19.506Z,51.70
2023-05-16T14:16:46.522Z,51.51
2023-05-16T14:19:14.892Z,52.24
2023-05-16T14:21:43.301Z,53.43
2023-05-16T14:24:09.953Z,53.95
2023-05-16T14:26:36.628Z,52.23
2023-05-16T14:29:05.885Z,51.37
2023-05-16T14:31:33.605Z,49.80
2023-05-16T14:34:00.273Z,49.77
2023-05-16T14:36:26.938Z,50.88
2023-05-16T14:38:53.599Z,51.30
2023-05-16T14:41:20.212Z,51.72
2023-05-16T14:43:46.918Z,52.08
2023-05-16T14:46:14.000Z,52.23
2023-05-16T14:48:41.289Z,53.65
2023-05-16T14:51:07.981Z,52.27
2023-05-16T14:53:34.677Z,52.53
2023-05-16T14:56:02.882Z,53.59
2023-05-16T14:58:30.482Z,55.92
2023-05-16T15:00:57.173Z,57.18
2023-05-16T15:03:23.917Z,58.54
2023-05-16T15:05:50.538Z,58.74
2023-05-16T15:08:17.227Z,59.95
2023-05-16T15:10:43.934Z,59.59
2023-05-16T15:13:10.936Z,60.31
2023-05-16T15:15:38.903Z,60.44
2023-05-16T15:18:08.835Z,61.76
2023-05-16T15:20:35.489Z,61.46
2023-05-16T15:23:02.107Z,63.04
2023-05-16T15:25:29.069Z,63.02
2023-05-16T15:27:56.381Z,63.70
2023-05-16T15:30:23.147Z,62.18
2023-05-16T15:32:49.832Z,62.05
2023-05-16T15:35:16.494Z,63.52
2023-05-16T15:37:43.816Z,63.66
2023-05-16T15:40:11.214Z,64.52
2023-05-16T15:42:38.275Z,65.05
2023-05-16T15:45:05.360Z,66.26
2023-05-16T15:47:32.212Z,66.14
2023-05-16T15:49:58.845Z,65.92
2023-05-16T15:52:25.532Z,64.10
2023-05-16T15:54:52.170Z,64.08
2023-05-16T15:57:19.250Z,62.96
2023-05-16T15:59:46.436Z,62.23
2023-05-16T16:02:13.094Z,62.96
2023-05-16T16:04:39.836Z,63.64
2023-05-16T16:07:06.512Z,64.03
2023-05-16T16:09:33.136Z,64.40
2023-05-16T16:11:59.769Z,64.92
2023-05-16T16:14:26.413Z,65.17
2023-05-16T16:16:53.037Z,64.69
2023-05-16T16:19:19.734Z,65.06
2023-05-16T16:21:48.964Z,64.95
2023-05-16T16:24:15.919Z,65.95
2023-05-16T16:26:43.395Z,69.83
2023-05-16T16:29:10.084Z,71.87
2023-05-16T16:31:36.832Z,74.09
2023-05-16T16:34:03.598Z,75.12
2023-05-16T16:36:31.962Z,74.60
2023-05-16T16:38:59.502Z,76.02
2023-05-16T16:41:26.287Z,75.55
2023-05-16T16:43:53.102Z,75.52
2023-05-16T16:46:19.859Z,75.97
2023-05-16T16:48:46.517Z,75.98
2023-05-16T16:51:13.160Z,76.99
2023-05-16T16:53:41.074Z,77.04
2023-05-16T16:56:07.725Z,75.92
2023-05-16T16:58:34.449Z,75.97
2023-05-16T17:01:01.269Z,75.45
2023-05-16T17:03:27.960Z,74.62
2023-05-16T17:05:54.652Z,73.77
2023-05-16T17:08:21.671Z,74.03
2023-05-16T17:10:48.328Z,74.48
2023-05-16T17:13:17.255Z,74.87
2023-05-16T17:15:44.236Z,76.42
2023-05-16T17:18:13.141Z,76.65
2023-05-16T17:20:39.955Z,77.44
2023-05-16T17:23:06.662Z,78.13
2023-05-16T17:25:33.274Z,77.00
2023-05-16T17:27:59.995Z,79.41
2023-05-16T17:30:26.729Z,79.73
2023-05-16T17:32:54.165Z,78.98
2023-05-16T17:35:20.929Z,78.91
2023-05-16T17:37:47.910Z,78.55
2023-05-16T17:40:17.004Z,79.05
2023-05-16T17:42:45.033Z,78.89
2023-05-16T17:45:14.860Z,78.92
2023-05-16T17:47:42.129Z,79.26
2023-05-16T17:50:10.407Z,80.90
2023-05-16T17:52:38.613Z,80.73
2023-05-16T17:55:07.230Z,80.41
2023-05-16T17:57:34.322Z,80.85
2023-05-16T18:00:01.751Z,80.62
2023-05-16T18:02:28.739Z,80.93
2023-05-16T18:04:55.849Z,80.75
2023-05-16T18:07:22.703Z,80.88
2023-05-16T18:09:49.461Z,80.97
2023-05-16T18:12:16.222Z,81.03
2023-05-16T18:14:45.282Z,81.26
2023-05-16T18:17:13.438Z,81.81
2023-05-16T18:19:40.316Z,81.02
2023-05-16T18:22:08.908Z,78.95
2023-05-16T18:24:35.963Z,81.47
2023-05-16T18:27:03.280Z,82.45
2023-05-16T18:29:30.418Z,81.23
2023-05-16T18:31:57.822Z,81.63
2023-05-16T18:34:24.651Z,82.29
2023-05-16T18:36:51.308Z,82.62
2023-05-16T18:39:19.080Z,82.04
2023-05-16T18:41:48.263Z,83.25
2023-05-16T18:44:18.470Z,81.82
2023-05-16T18:46:46.588Z,83.15
2023-05-16T18:49:14.230Z,83.22
2023-05-16T18:51:41.109Z,82.73
2023-05-16T18:54:08.075Z,83.20
2023-05-16T18:56:35.206Z,84.19
2023-05-16T18:59:02.082Z,84.15
2023-05-16T19:01:28.932Z,80.50
2023-05-16T19:03:56.251Z,81.81
2023-05-16T19:06:23.441Z,81.67
2023-05-16T19:08:50.534Z,81.99
2023-05-16T19:11:17.945Z,77.18
2023-05-16T19:13:45.974Z,73.62
2023-05-16T19:16:13.170Z,75.37
2023-05-16T19:18:40.410Z,76.81
2023-05-16T19:21:13.795Z,76.83
2023-05-16T19:23:40.930Z,73.96
2023-05-16T19:26:08.002Z,74.76
2023-05-16T19:28:35.028Z,75.18
2023-05-16T19:31:01.844Z,75.04
2023-05-16T19:33:28.670Z,75.14
2023-05-16T19:35:58.750Z,74.07
2023-05-16T19:38:26.802Z,74.21
2023-05-16T19:40:53.932Z,75.41
2023-05-16T19:43:20.937Z,70.70
2023-05-16T19:45:47.970Z,75.12
2023-05-16T19:48:14.992Z,72.37
2023-05-16T19:50:42.593Z,70.08
2023-05-16T19:53:09.590Z,66.53
2023-05-16T19:55:38.241Z,66.47
2023-05-16T19:58:05.295Z,63.30
2023-05-16T20:00:32.469Z,63.30
2023-05-16T20:02:59.603Z,62.28
2023-05-16T20:05:26.648Z,62.34
2023-05-16T20:07:54.658Z,60.98
2023-05-16T20:10:22.222Z,60.43
2023-05-16T20:12:49.195Z,60.68
2023-05-16T20:15:16.475Z,60.07
2023-05-16T20:17:43.199Z,60.25
2023-05-16T20:20:10.418Z,60.88
2023-05-16T20:22:41.480Z,62.51
2023-05-16T20:25:09.965Z,63.81
2023-05-16T20:27:36.925Z,65.27
2023-05-16T20:30:05.149Z,66.39
2023-05-16T20:32:31.964Z,70.96
2023-05-16T20:34:58.652Z,70.76
2023-05-16T20:37:28.236Z,72.40
2023-05-16T20:39:54.990Z,75.00
2023-05-16T20:42:22.107Z,75.99
2023-05-16T20:44:48.885Z,81.82
2023-05-16T20:47:17.141Z,86.61
2023-05-16T20:49:43.843Z,88.86
2023-05-16T20:52:11.194Z,94.75
2023-05-16T20:54:37.889Z,99.57
2023-05-16T20:57:04.997Z,98.06
2023-05-16T20:59:32.395Z,100.00
2023-05-16T21:01:59.107Z,98.60
2023-05-16T21:04:25.949Z,99.10
2023-05-16T21:06:52.582Z,92.23
2023-05-16T21:09:19.310Z,97.78
2023-05-16T21:11:45.947Z,98.12
2023-05-16T21:14:12.727Z,95.47
2023-05-16T21:16:39.293Z,98.23
2023-05-16T21:19:05.999Z,97.32
2023-05-16T21:21:32.934Z,99.39
2023-05-16T21:23:59.740Z,98.47
2023-05-16T21:26:26.412Z,86.02
2023-05-16T21:28:55.408Z,80.36
2023-05-16T21:31:22.977Z,83.72
2023-05-16T21:33:52.242Z,84.03
2023-05-16T21:36:20.181Z,83.65
2023-05-16T21:38:46.955Z,87.40
2023-05-16T21:41:14.584Z,87.40
2023-05-16T21:43:41.340Z,85.26
2023-05-16T21:46:07.988Z,78.06
2023-05-16T21:48:34.802Z,72.31
2023-05-16T21:51:01.785Z,75.28
2023-05-16T21:53:28.423Z,79.06
2023-05-16T21:55:55.086Z,83.11
2023-05-16T21:58:22.123Z,83.26
2023-05-16T22:00:49.591Z,82.95
2023-05-16T22:03:19.191Z,83.14
2023-05-16T22:05:48.641Z,81.91
2023-05-16T22:08:15.414Z,82.19
2023-05-16T22:10:42.396Z,86.71
2023-05-16T22:13:09.179Z,90.47
2023-05-16T22:15:35.852Z,90.73
2023-05-16T22:18:02.834Z,90.69
2023-05-16T22:20:29.841Z,92.56
2023-05-16T22:22:56.677Z,94.66
2023-05-16T22:25:23.624Z,95.41
2023-05-16T22:27:50.358Z,100.00
2023-05-16T22:30:17.047Z,100.00
2023-05-16T22:32:45.808Z,100.00
2023-05-16T22:35:14.071Z,100.00
2023-05-16T22:37:40.796Z,100.00
2023-05-16T22:40:08.350Z,100.00
2023-05-16T22:42:35.037Z,100.00
2023-05-16T22:45:01.708Z,100.00
2023-05-16T22:47:28.934Z,99.63
2023-05-16T22:49:55.679Z,100.00
2023-05-16T22:52:22.353Z,100.00
2023-05-16T22:54:49.024Z,100.00
2023-05-16T22:57:15.781Z,100.00
2023-05-16T22:59:42.918Z,100.00
2023-05-16T23:02:09.553Z,100.00
2023-05-16T23:04:36.245Z,100.00
2023-05-16T23:07:03.284Z,100.00
2023-05-16T23:09:29.856Z,100.00
2023-05-16T23:11:56.485Z,100.00
2023-05-16T23:14:23.089Z,100.00
2023-05-16T23:16:49.682Z,100.00
2023-05-16T23:19:16.404Z,100.00
2023-05-16T23:21:43.262Z,100.00
2023-05-16T23:24:10.028Z,100.00
2023-05-16T23:26:36.661Z,100.00
2023-05-16T23:29:03.485Z,100.00
2023-05-16T23:31:30.096Z,100.00
2023-05-16T23:33:56.760Z,100.00
2023-05-16T23:36:23.442Z,100.00
2023-05-16T23:38:50.062Z,100.00
2023-05-16T23:41:16.748Z,100.00
2023-05-16T23:43:43.359Z,100.00
2023-05-16T23:46:09.934Z,100.00
2023-05-16T23:48:36.689Z,100.00
2023-05-16T23:51:07.361Z,100.00
2023-05-16T23:53:34.981Z,100.00
2023-05-16T23:56:01.580Z,100.00
2023-05-16T23:58:28.302Z,100.00
